Blooming Grove, TX (76626)

4:08 AM CDT on May 26, 2015 (GMT -0500)
Blooming Grove | | Change Station
CLOSE
Current Station
Personal Weather Station
Location: Blooming Grove, TX
Elevation: 551 ft
Nearby Weather Stations
Active Advisory: Flood Warning Active Notice: Public Information Statement

Elev 551 ft 32.09 °N, 96.69 °W | Updated 5 minutes ago

Overcast
Overcast
64.8 °F
Feels Like 64.8 °F
N
2.7
Wind Variable Wind from ESE

Today
High -- | Low -- °F
--% Chance of Precip.
Yesterday
High -- | Low -- °F
Precip. -- in
6:23 AM 8:24 PM
First Quarter, 56% visible
Pressure 29.96 in
Visibility 10.0 miles
Clouds Overcast 500 ft
Dew Point 64 °F
Humidity 97%
Rainfall 0.00 in
Snow Depth Not available.
UV 0 out of 12
Pollen 4.00 out of 12
Air Quality Not available.
Flu Activity Sporadic
METAR KCRS 260853Z AUTO 16010KT 10SM OVC005 19/18 A2997 RMK AO2 SLP146 T01890178 51018 $

More Conditions Fewer Conditions

Pressure 29.96 in
Visibility 10.0 miles
Clouds Overcast 500 ft
Dew Point 64 °F
Humidity 97%
Rainfall 0.00 in
Snow Depth Not available.
UV 0 out of 12
Pollen 4.00 out of 12
Air Quality Not available.
Flu Activity Sporadic
METAR KCRS 260853Z AUTO 16010KT 10SM OVC005 19/18 A2997 RMK AO2 SLP146 T01890178 51018 $

More Conditions Fewer Conditions

10-Day Weather Forecast

Almanac

Astronomy

May. 26, 2015 Rise Set
Actual Time
Civil Twilight
Nautical Twilight
Astronomical Twilight
Moon
Length of Visible Light
Length of Day
Tomorrow will be .
, % of the Moon is Illuminated

Today's Extremes

State Highs State Lows

Community

WunderPhotos

Upload Photos

1,824,302 photos uploaded!

WunderBlogs® & News

Nearby

Air Quality

  Air Quality AQ Index Pollutant
Not available.

Snow Depth

Station Depth Elevation

Earthquake Activity

City Distance Mag. Time & Date
Minimum magnitude displayed is 2.5.

Coastal Water Temperatures

Place Temperature

Stations

Nearby Weather Stations

Station Location Temp. Windchill Dew Point Humidity Wind Precip. Elev Updated Type
                   
Flood Warning
Statement as of 3:35 AM CDT on May 26, 2015

The Flood Warning continues for
the Chambers creek near Rice.
* Until Friday afternoon... or until the warning is cancelled.
* At 0300 am Tuesday the stage was 30.27 feet.
* Flood stage is 24.0 feet.
* Major flooding is occurring and major flooding is forecast.
* Forecast... the river will continue rising to a crest near 31 feet
by Tuesday morning. The river should fall below flood stage early
Friday morning.
* At 31 feet, major out of bank flooding is expected. Ranch and farm
industries will be flooded. Rural roads will be underwater.


Lat... Lon 3217 9663 3212 9648 3218 9638 3227 9656